POGODA: Poland

Lotnisko: Rzeszow-Jasionka

METAR KOD: EPRZ


METAR: EPRZ 010700Z 06003KT 8000 NSC 17/17 Q1013


BLOK
Pogoda METAR
010700Z
Dzien: 01, Godzina: 07:00 UTC.
06003KT
Wiatr z kierunku 060, o predkosci 6 km/h
8000
Widzialnosc pozioma 8000 m.
NSC
brak istotnych chmur
17/17
Temperatura: powietrze 17°C, punkt rosy 17°C . Wilgotnosc wzgledna 100 %
Q1013
Cisnienie: 1013 hPa

Pogoda na innym lotnisku

Pogoda Gdansk-Rebiechowo WEATHER Poland  
Pogoda Katowice WEATHER Poland  
Pogoda Krakow WEATHER Poland  
Pogoda Poznan WEATHER Poland  
Pogoda Rzeszow-Jasionka WEATHER Poland  
Pogoda Szczecin WEATHER Poland  
Pogoda Warszawa-Okecie WEATHER Poland  
Pogoda Wroclaw Ii WEATHER Poland  

Pogoda w inny kraju

Strona startowa

(C) by GREGOR 2007
Ogłoszenia Towarzyskie